Time;durP1;ratioP1;P1;durP2;ratioP2;P2;SDS_P1;SDS_P2;PMS_P1;PMS_P2;Temp;Humidity;BMP_temperature;BMP_pressure;BME280_temperature;BME280_humidity;BME280_pressure;Samples;Min_cycle;Max_cycle;Signal;HPM_P1;HPM_P2
2022/07/24 00:00:56;;;;;;;13.30;10.70;;;;;;;16.14;61.56;101584.94;4890765;28;119861;-75
2022/07/24 00:03:22;;;;;;;12.02;9.82;;;;;;;16.08;61.42;101580.47;4890498;28;120178;-75
2022/07/24 00:05:47;;;;;;;13.32;9.48;;;;;;;16.08;61.19;101574.94;4909609;28;119742;-75
2022/07/24 00:08:13;;;;;;;14.57;9.90;;;;;;;16.10;61.10;101583.56;4922831;28;120228;-75
2022/07/24 00:10:39;;;;;;;10.60;9.30;;;;;;;16.08;61.32;101586.00;4890771;28;121757;-75
2022/07/24 00:13:04;;;;;;;11.02;9.45;;;;;;;16.06;61.26;101578.19;4891581;28;119932;-75
2022/07/24 00:15:30;;;;;;;13.30;10.10;;;;;;;15.96;61.43;101568.38;4890137;28;120453;-75
2022/07/24 00:17:56;;;;;;;12.98;10.63;;;;;;;15.98;61.74;101573.44;4890458;28;119858;-76
2022/07/24 00:20:22;;;;;;;11.85;9.70;;;;;;;15.98;61.62;101571.44;4892341;28;119985;-76
2022/07/24 00:22:48;;;;;;;13.43;9.93;;;;;;;15.98;61.46;101570.69;4892870;28;119842;-76
2022/07/24 00:25:14;;;;;;;14.88;10.07;;;;;;;16.04;61.66;101585.41;4891016;28;122440;-76
2022/07/24 00:27:40;;;;;;;13.88;9.27;;;;;;;15.99;61.38;101572.97;4926658;28;123422;-75
2022/07/24 00:30:06;;;;;;;15.35;10.23;;;;;;;15.93;61.24;101564.53;4907486;28;119611;-76
2022/07/24 00:32:32;;;;;;;13.57;10.13;;;;;;;15.94;61.18;101568.09;4890732;28;119955;-76
2022/07/24 00:34:57;;;;;;;14.27;10.23;;;;;;;15.91;61.29;101563.47;4891952;28;120324;-76
2022/07/24 00:37:23;;;;;;;12.05;8.95;;;;;;;15.94;61.47;101568.84;4891480;28;120672;-76
2022/07/24 00:39:49;;;;;;;12.68;9.27;;;;;;;15.95;61.59;101570.38;4904908;28;119877;-76
2022/07/24 00:42:14;;;;;;;12.07;9.73;;;;;;;15.94;61.71;101563.31;4892021;28;119649;-76
2022/07/24 00:44:43;;;;;;;14.82;9.50;;;;;;;15.91;61.60;101577.31;4890761;28;121953;-76
2022/07/24 00:47:26;;;;;;;12.40;9.32;;;;;;;15.83;61.69;101567.78;4902652;28;122783;-76
2022/07/24 00:49:54;;;;;;;14.02;9.50;;;;;;;15.81;61.82;101567.50;4891594;28;119994;-76
2022/07/24 00:52:20;;;;;;;12.68;9.60;;;;;;;15.77;61.76;101570.44;4906677;28;121911;-76
2022/07/24 00:54:46;;;;;;;14.02;10.27;;;;;;;15.78;62.26;101571.19;4889552;28;119780;-76
2022/07/24 00:57:11;;;;;;;13.90;10.07;;;;;;;15.78;62.06;101569.19;4888390;28;121886;-76
2022/07/24 00:59:37;;;;;;;12.52;9.68;;;;;;;15.77;62.51;101570.44;4920162;28;120680;-75
2022/07/24 01:02:03;;;;;;;13.35;9.70;;;;;;;15.79;62.17;101578.25;4905120;28;120082;-76
2022/07/24 01:04:29;;;;;;;14.35;10.57;;;;;;;15.77;62.51;101572.44;4889401;28;122308;-76
2022/07/24 01:06:58;;;;;;;12.90;10.68;;;;;;;15.72;62.60;101567.53;4872700;28;121115;-76
2022/07/24 01:09:24;;;;;;;13.40;10.68;;;;;;;15.74;62.50;101574.13;4891191;28;119837;-76
2022/07/24 01:11:52;;;;;;;14.38;11.23;;;;;;;15.71;62.73;101575.06;4894981;28;119735;-76
2022/07/24 01:14:18;;;;;;;13.73;11.05;;;;;;;15.74;62.77;101576.13;4892097;28;120364;-76
2022/07/24 01:16:44;;;;;;;14.07;11.48;;;;;;;15.69;63.02;101574.00;4889705;28;121796;-76
2022/07/24 01:19:09;;;;;;;14.20;11.57;;;;;;;15.69;63.06;101577.53;4873862;28;122848;-76
2022/07/24 01:21:35;;;;;;;16.15;11.57;;;;;;;15.71;63.03;101575.06;4892298;28;119793;-77
2022/07/24 01:24:01;;;;;;;14.23;11.70;;;;;;;15.72;63.11;101576.59;4907843;28;120144;-76
2022/07/24 01:26:27;;;;;;;15.38;11.43;;;;;;;15.69;63.21;101572.00;4905674;28;119973;-76
2022/07/24 01:28:53;;;;;;;12.48;11.18;;;;;;;15.74;63.16;101568.59;4873221;28;119597;-78
2022/07/24 01:31:18;;;;;;;16.08;11.65;;;;;;;15.80;63.48;101563.19;4891982;28;123115;-75
2022/07/24 01:33:44;;;;;;;15.63;11.38;;;;;;;15.78;63.36;101549.06;4887848;28;120125;-77
2022/07/24 01:36:10;;;;;;;16.98;12.20;;;;;;;15.81;62.95;101554.44;4890878;28;119965;-76
2022/07/24 01:38:35;;;;;;;14.75;12.15;;;;;;;15.79;63.60;101554.13;4889884;28;120124;-76
2022/07/24 01:41:01;;;;;;;15.80;11.38;;;;;;;15.80;63.58;101561.19;4905110;28;119920;-76
2022/07/24 01:43:26;;;;;;;17.83;12.25;;;;;;;15.80;63.19;101547.38;4905524;28;120307;-76
2022/07/24 01:45:52;;;;;;;16.60;12.10;;;;;;;15.82;63.30;101552.44;4888262;28;122695;-77
2022/07/24 01:48:18;;;;;;;16.55;12.65;;;;;;;15.82;63.10;101552.44;4888229;28;119748;-76
2022/07/24 01:50:43;;;;;;;18.17;13.00;;;;;;;15.81;63.25;101551.66;4888359;28;121717;-76
2022/07/24 01:53:09;;;;;;;15.95;11.88;;;;;;;15.80;63.14;101560.44;4892549;28;119946;-76
2022/07/24 01:55:34;;;;;;;17.33;12.82;;;;;;;15.81;63.49;101561.97;4889268;28;121635;-76
2022/07/24 01:58:00;;;;;;;15.20;11.82;;;;;;;15.79;63.35;101558.91;4888497;28;123177;-76
2022/07/24 02:00:26;;;;;;;14.40;11.48;;;;;;;15.79;63.56;101565.19;4891379;28;119771;-76
2022/07/24 02:02:51;;;;;;;17.00;12.70;;;;;;;15.79;63.31;101565.19;4890627;28;119886;-76
2022/07/24 02:05:32;;;;;;;16.80;11.65;;;;;;;15.79;63.27;101567.19;4917052;28;121795;-76
2022/07/24 02:07:59;;;;;;;15.52;12.32;;;;;;;15.80;63.11;101568.72;4904611;28;119637;-76
2022/07/24 02:10:26;;;;;;;14.98;12.00;;;;;;;15.78;63.15;101579.50;4906044;28;119967;-76
2022/07/24 02:12:52;;;;;;;17.90;12.50;;;;;;;15.73;63.29;101556.00;4873557;28;122775;-76
2022/07/24 02:15:20;;;;;;;16.33;12.18;;;;;;;15.73;63.79;101555.22;4893055;28;119566;-76
2022/07/24 02:17:50;;;;;;;17.67;12.50;;;;;;;15.72;63.45;101554.47;4889076;28;122847;-76
2022/07/24 02:20:17;;;;;;;16.90;12.23;;;;;;;15.69;63.50;101555.41;4886894;28;119931;-76
2022/07/24 02:22:42;;;;;;;15.20;12.95;;;;;;;15.77;63.25;101570.44;4907934;28;119904;-76
2022/07/24 02:25:09;;;;;;;15.18;12.07;;;;;;;15.72;63.36;101564.75;4922660;28;120368;-76
2022/07/24 02:27:34;;;;;;;20.63;12.55;;;;;;;15.75;63.49;101567.34;4872932;28;119734;-76
2022/07/24 02:30:00;;;;;;;18.60;12.90;;;;;;;15.69;63.63;101558.16;4892493;28;119853;-76
2022/07/24 02:32:26;;;;;;;20.63;13.68;;;;;;;15.72;63.84;101562.75;4906357;28;120104;-76
2022/07/24 02:34:52;;;;;;;17.38;12.27;;;;;;;15.68;63.59;101561.38;4905772;28;120187;-75
2022/07/24 02:37:18;;;;;;;20.33;12.65;;;;;;;15.73;63.34;101566.28;4893474;28;120303;-75
2022/07/24 02:39:43;;;;;;;18.08;12.98;;;;;;;15.63;64.02;101555.25;4892060;28;120440;-76
2022/07/24 02:42:09;;;;;;;17.95;13.20;;;;;;;15.67;64.15;101566.16;4890154;28;120458;-76
2022/07/24 02:44:34;;;;;;;17.50;12.48;;;;;;;15.68;64.07;101564.91;4891499;28;123551;-76
2022/07/24 02:47:00;;;;;;;17.45;11.55;;;;;;;15.70;64.23;101567.22;4891078;28;120087;-76
2022/07/24 02:49:26;;;;;;;15.98;12.45;;;;;;;15.70;63.77;101556.94;4924572;28;119863;-76
2022/07/24 02:52:20;;;;;;;15.75;11.95;;;;;;;15.73;64.17;101564.28;4881019;28;120963;-75
2022/07/24 02:54:46;;;;;;;14.95;12.18;;;;;;;15.70;64.08;101548.63;4894346;28;120312;-76
2022/07/24 02:57:11;;;;;;;16.02;12.20;;;;;;;15.76;64.23;101546.75;4906587;28;119577;-76
2022/07/24 02:59:37;;;;;;;19.02;12.38;;;;;;;15.78;64.04;101558.13;4895080;28;123625;-76
2022/07/24 03:02:02;;;;;;;16.13;12.13;;;;;;;15.77;64.23;101553.81;4892685;28;119741;-76
2022/07/24 03:04:28;;;;;;;15.93;11.43;;;;;;;15.77;64.01;101556.59;4906805;28;122655;-75
2022/07/24 03:06:56;;;;;;;17.10;12.50;;;;;;;15.75;64.17;101550.00;4887870;28;119769;-76
2022/07/24 03:09:22;;;;;;;15.48;11.52;;;;;;;15.77;63.95;101561.34;4896145;28;120761;-76
2022/07/24 03:11:48;;;;;;;12.98;11.57;;;;;;;15.75;63.88;101559.06;4891091;28;123011;-76
2022/07/24 03:14:16;;;;;;;14.95;11.57;;;;;;;15.79;63.83;101569.97;4906091;28;119939;-76
2022/07/24 03:16:42;;;;;;;16.13;11.48;;;;;;;15.79;63.80;101572.72;4891354;28;120609;-76
2022/07/24 03:19:07;;;;;;;14.63;11.80;;;;;;;15.77;63.68;101564.13;4890587;28;119957;-76
2022/07/24 03:21:34;;;;;;;17.92;12.98;;;;;;;15.78;64.33;101568.44;4893314;28;119535;-76
2022/07/24 03:24:00;;;;;;;14.27;11.30;;;;;;;15.75;64.15;101561.81;4902824;28;120655;-76
2022/07/24 03:26:25;;;;;;;15.60;11.25;;;;;;;15.78;63.77;101569.19;4884775;28;120234;-76
2022/07/24 03:28:51;;;;;;;13.15;10.73;;;;;;;15.77;63.57;101562.13;4887263;28;120102;-77
2022/07/24 03:31:16;;;;;;;16.10;11.00;;;;;;;15.77;63.69;101562.13;4889515;28;119885;-78
2022/07/24 03:33:42;;;;;;;15.30;11.43;;;;;;;15.81;63.69;101564.72;4889152;28;119521;-77
2022/07/24 03:36:08;;;;;;;14.65;10.98;;;;;;;15.82;63.75;101561.50;4888836;28;119922;-78
2022/07/24 03:38:34;;;;;;;14.43;11.27;;;;;;;15.80;63.56;101550.13;4889059;28;122815;-78
2022/07/24 03:40:59;;;;;;;15.50;11.48;;;;;;;15.89;63.38;101558.41;4906164;28;119711;-77
2022/07/24 03:43:25;;;;;;;15.30;11.13;;;;;;;15.92;63.82;101563.00;4890081;28;120799;-77
2022/07/24 03:45:50;;;;;;;14.10;10.57;;;;;;;15.84;63.54;101538.91;4890922;28;119819;-77
2022/07/24 03:48:16;;;;;;;12.75;10.88;;;;;;;15.92;63.85;101546.41;4890777;28;121899;-78
2022/07/24 03:50:41;;;;;;;15.10;10.65;;;;;;;15.93;64.05;101536.13;4873559;28;122707;-77
2022/07/24 03:53:07;;;;;;;12.05;10.05;;;;;;;16.01;63.87;101548.38;4887060;28;121418;-77
2022/07/24 03:55:33;;;;;;;14.15;10.35;;;;;;;16.03;63.79;101534.84;4887245;28;121700;-77
2022/07/24 03:58:16;;;;;;;13.88;10.40;;;;;;;16.06;63.64;101539.44;4904611;28;120039;-77
2022/07/24 04:00:41;;;;;;;13.98;10.55;;;;;;;16.09;63.64;101530.22;4869522;28;119744;-77
2022/07/24 04:03:07;;;;;;;14.38;10.43;;;;;;;16.12;64.15;101540.34;4893827;28;120741;-77
2022/07/24 04:05:33;;;;;;;13.05;9.57;;;;;;;16.15;63.57;101535.88;4921148;28;122294;-77
2022/07/24 04:08:04;;;;;;;13.32;10.00;;;;;;;16.25;63.85;101545.66;4921710;28;122569;-77
2022/07/24 04:10:30;;;;;;;15.25;9.75;;;;;;;16.30;63.83;101535.94;4885938;28;122934;-76
2022/07/24 04:12:55;;;;;;;13.30;9.82;;;;;;;16.36;63.79;101531.31;4890548;28;119983;-77
2022/07/24 04:15:21;;;;;;;11.68;9.55;;;;;;;16.41;63.75;101530.66;4890502;28;120246;-77
2022/07/24 04:17:46;;;;;;;12.35;9.95;;;;;;;16.45;63.79;101534.03;4922412;28;119851;-77
2022/07/24 04:20:12;;;;;;;13.15;9.77;;;;;;;16.47;63.88;101526.78;4889097;28;119829;-76
2022/07/24 04:22:41;;;;;;;13.40;9.98;;;;;;;16.61;63.55;101538.41;4883787;28;121990;-77
2022/07/24 04:25:08;;;;;;;13.32;9.82;;;;;;;16.66;63.94;101518.34;4892079;28;120156;-77
2022/07/24 04:27:33;;;;;;;13.25;9.60;;;;;;;16.78;63.65;101529.22;4904925;28;119547;-77
2022/07/24 04:29:59;;;;;;;12.45;8.93;;;;;;;16.82;63.29;101521.50;4920977;28;119969;-77
2022/07/24 04:32:25;;;;;;;13.35;9.07;;;;;;;16.89;63.49;101512.06;4921147;28;120207;-77
2022/07/24 04:34:51;;;;;;;11.35;8.73;;;;;;;17.04;63.60;101523.94;4920870;28;120170;-76
2022/07/24 04:37:16;;;;;;;9.80;8.20;;;;;;;17.10;63.54;101516.50;4889616;28;120210;-77
2022/07/24 04:39:42;;;;;;;14.10;9.20;;;;;;;17.15;63.41;101513.06;4893869;28;119473;-77
2022/07/24 04:42:08;;;;;;;11.18;8.40;;;;;;;17.25;63.33;101508.19;4906481;28;120073;-77
2022/07/24 04:44:33;;;;;;;12.18;8.38;;;;;;;17.27;62.98;101504.94;4904708;28;120029;-77
2022/07/24 04:46:59;;;;;;;12.45;8.85;;;;;;;17.31;62.87;101506.31;4893360;28;120164;-77
2022/07/24 04:49:24;;;;;;;11.63;8.20;;;;;;;17.34;62.97;101510.13;4886225;28;123831;-77
2022/07/24 04:51:50;;;;;;;11.35;8.23;;;;;;;17.40;63.20;101519.28;4890836;28;121073;-77
2022/07/24 04:54:16;;;;;;;11.98;8.18;;;;;;;17.42;63.40;101516.81;4889531;28;121784;-77
2022/07/24 04:57:07;;;;;;;10.45;7.78;;;;;;;17.47;63.12;101510.59;4906558;28;120251;-78
2022/07/24 04:59:33;;;;;;;11.13;8.10;;;;;;;17.53;62.93;101508.69;4889894;28;119910;-78
2022/07/24 05:01:59;;;;;;;10.15;8.15;;;;;;;17.60;63.15;101505.53;4921045;28;120559;-78
2022/07/24 05:04:24;;;;;;;12.40;8.20;;;;;;;17.65;63.27;101506.84;4904010;28;123229;-77
2022/07/24 05:06:50;;;;;;;10.35;8.18;;;;;;;17.67;62.74;101504.38;4890951;28;120056;-77
2022/07/24 05:09:16;;;;;;;10.52;7.50;;;;;;;17.71;63.08;101508.50;4922858;28;120758;-77
2022/07/24 05:11:41;;;;;;;12.63;8.07;;;;;;;17.77;63.00;101505.84;4897176;28;119940;-77
2022/07/24 05:14:07;;;;;;;10.15;7.93;;;;;;;17.85;63.11;101506.97;4888221;28;121692;-77
2022/07/24 05:16:33;;;;;;;13.18;7.72;;;;;;;17.89;62.85;101506.75;4889247;28;120573;-76
2022/07/24 05:18:58;;;;;;;8.75;7.10;;;;;;;18.01;63.19;101512.03;4920331;28;120389;-77
2022/07/24 05:21:24;;;;;;;8.55;7.18;;;;;;;18.07;63.02;101509.31;4889739;28;119960;-76
2022/07/24 05:23:49;;;;;;;9.65;7.18;;;;;;;18.18;62.84;101509.47;4905047;28;122816;-77
2022/07/24 05:26:15;;;;;;;8.80;6.78;;;;;;;18.23;62.95;101506.03;4901580;28;120131;-77
2022/07/24 05:28:41;;;;;;;8.60;6.35;;;;;;;18.29;62.77;101508.88;4889476;28;121674;-77
2022/07/24 05:31:08;;;;;;;7.80;6.43;;;;;;;18.24;62.79;101493.66;4904292;28;121508;-77
2022/07/24 05:33:34;;;;;;;7.80;6.72;;;;;;;18.46;62.81;101512.66;4898279;28;119881;-77
2022/07/24 05:36:00;;;;;;;10.80;7.20;;;;;;;18.56;62.57;101510.50;4887601;28;121486;-77
2022/07/24 05:38:34;;;;;;;9.80;7.13;;;;;;;18.60;62.42;101505.47;4912596;28;120226;-78
2022/07/24 05:41:01;;;;;;;12.02;6.55;;;;;;;18.71;62.39;101500.09;4905920;28;121641;-78
2022/07/24 05:43:27;;;;;;;10.32;6.25;;;;;;;18.85;62.15;101502.03;4920668;28;120401;-77
2022/07/24 05:45:53;;;;;;;10.80;6.32;;;;;;;18.94;61.66;101501.91;4890114;28;119672;-78
2022/07/24 05:48:18;;;;;;;9.40;6.22;;;;;;;18.99;61.54;101494.84;4921944;28;120143;-78
2022/07/24 05:50:44;;;;;;;9.63;6.47;;;;;;;19.14;61.33;101491.97;4893865;28;120434;-77
2022/07/24 05:53:09;;;;;;;10.02;6.60;;;;;;;19.14;60.48;101484.38;4921232;28;119913;-77
2022/07/24 05:55:35;;;;;;;9.68;6.45;;;;;;;19.18;60.86;101493.28;4891978;28;120364;-77
2022/07/24 05:58:01;;;;;;;9.52;5.97;;;;;;;19.21;60.45;101495.09;4922393;28;119663;-78
2022/07/24 06:00:27;;;;;;;8.00;5.18;;;;;;;19.28;60.90;101488.31;4924956;28;119625;-78
2022/07/24 06:02:53;;;;;;;10.00;5.68;;;;;;;19.38;60.55;101489.66;4922841;28;120275;-77
2022/07/24 06:05:18;;;;;;;6.95;5.25;;;;;;;19.39;60.59;101496.00;4891442;28;120003;-78
2022/07/24 06:07:44;;;;;;;7.07;5.38;;;;;;;19.48;60.28;101491.03;4894041;28;120345;-77
2022/07/24 06:10:10;;;;;;;10.32;5.13;;;;;;;19.58;59.95;101492.41;4908739;28;121078;-77
2022/07/24 06:12:39;;;;;;;8.38;5.45;;;;;;;19.61;60.00;101485.84;4911901;28;119999;-77
2022/07/24 06:15:05;;;;;;;6.65;4.65;;;;;;;19.70;60.19;101496.06;4893328;28;123566;-77
2022/07/24 06:17:31;;;;;;;9.88;4.65;;;;;;;19.78;59.93;101501.91;4892379;28;120009;-78
2022/07/24 06:20:26;;;;;;;7.63;4.70;;;;;;;19.84;59.16;101497.16;4903183;28;120458;-78
2022/07/24 06:22:51;;;;;;;4.95;4.13;;;;;;;19.89;59.76;101493.66;4893447;28;120790;-77
2022/07/24 06:25:17;;;;;;;4.80;3.65;;;;;;;19.97;59.79;101505.09;4871884;28;120214;-78
2022/07/24 06:27:50;;;;;;;5.57;3.90;;;;;;;20.02;59.70;101488.41;4908864;28;119674;-78
2022/07/24 06:30:18;;;;;;;6.32;4.28;;;;;;;20.09;59.80;101490.72;4920193;28;122961;-77
2022/07/24 06:32:44;;;;;;;3.60;3.28;;;;;;;20.17;58.89;101486.25;4906894;28;120363;-78
2022/07/24 06:35:11;;;;;;;5.55;3.60;;;;;;;20.25;59.03;101492.09;4895648;28;119902;-78
2022/07/24 06:37:36;;;;;;;5.82;3.55;;;;;;;20.31;58.87;101486.56;4907887;28;121089;-78
2022/07/24 06:40:04;;;;;;;6.90;3.33;;;;;;;20.44;58.89;101493.25;4894450;28;120389;-78
2022/07/24 06:42:29;;;;;;;4.88;3.47;;;;;;;20.54;58.68;101491.00;4923590;28;120590;-77
2022/07/24 06:44:58;;;;;;;4.25;3.65;;;;;;;20.63;58.64;101485.22;4890412;28;120358;-77
2022/07/24 06:47:25;;;;;;;6.15;3.65;;;;;;;20.72;57.88;101479.41;4909183;28;120370;-76
2022/07/24 06:49:52;;;;;;;4.15;2.72;;;;;;;20.81;57.23;101487.53;4891911;28;120082;-78
2022/07/24 06:52:18;;;;;;;3.67;2.70;;;;;;;20.89;57.38;101479.47;4899189;28;120004;-78
2022/07/24 06:54:44;;;;;;;6.53;3.20;;;;;;;20.91;57.13;101481.75;4892056;28;119832;-78
2022/07/24 06:57:09;;;;;;;5.97;3.28;;;;;;;20.70;56.08;101440.13;4878053;28;123003;-78
2022/07/24 06:59:35;;;;;;;8.90;3.55;;;;;;;20.94;56.38;101472.38;4890223;28;121347;-78
2022/07/24 07:02:01;;;;;;;3.60;2.80;;;;;;;20.96;55.80;101472.63;4891762;28;120129;-78
2022/07/24 07:04:26;;;;;;;3.88;3.10;;;;;;;20.97;55.84;101463.00;4922901;28;120088;-77
2022/07/24 07:07:18;;;;;;;3.97;2.97;;;;;;;21.09;56.32;101467.34;4863293;28;120753;-77
2022/07/24 07:09:43;;;;;;;5.82;3.03;;;;;;;21.24;55.88;101467.13;4849543;28;120487;-78
2022/07/24 07:12:10;;;;;;;5.72;3.45;;;;;;;21.32;55.45;101471.72;4860589;28;120903;-78
2022/07/24 07:14:36;;;;;;;4.50;2.85;;;;;;;21.41;55.39;101463.06;4907310;28;120651;-78
2022/07/24 07:17:01;;;;;;;;;;;;;;;21.54;55.85;101468.16;4921446;28;121972;-78
2022/07/24 07:19:27;;;;;;;3.60;2.83;;;;;;;21.56;54.66;101459.28;4927836;28;119888;-78
2022/07/24 07:21:53;;;;;;;3.85;3.08;;;;;;;21.62;55.15;101454.44;4891691;28;120341;-77
2022/07/24 07:24:18;;;;;;;4.68;2.97;;;;;;;21.77;55.48;101454.94;4891164;28;119798;-78
2022/07/24 07:26:44;;;;;;;6.03;3.50;;;;;;;21.87;55.10;101463.81;4923820;28;120031;-78
2022/07/24 07:29:10;;;;;;;3.75;2.65;;;;;;;21.91;54.81;101456.69;4890328;28;123318;-78
2022/07/24 07:31:35;;;;;;;;;;;;;;;22.06;54.66;101456.44;4922620;28;120348;-78
2022/07/24 07:34:01;;;;;;;;;;;;;;;22.10;54.32;101456.91;4924875;28;123303;-78
2022/07/24 07:36:26;;;;;;;;;;;;;;;22.13;54.50;101472.66;4892537;28;120278;-78
2022/07/24 07:38:52;;;;;;;;;;;;;;;22.14;54.42;101462.25;4892723;28;119811;-78
2022/07/24 07:41:19;;;;;;;;;;;;;;;22.14;54.34;101451.81;4898726;28;119959;-78
2022/07/24 07:43:46;;;;;;;;;;;;;;;22.15;54.60;101450.56;4908011;28;120194;-79
2022/07/24 07:46:12;;;;;;;;;;;;;;;22.18;54.69;101451.56;4923113;28;120198;-78
2022/07/24 07:48:38;;;;;;;;;;;;;;;22.19;54.75;101447.47;4922645;28;120054;-78
2022/07/24 07:51:03;;;;;;;;;;;;;;;22.22;54.89;101452.03;4892241;28;120361;-78
2022/07/24 07:53:29;;;;;;;;;;;;;;;22.27;55.19;101448.50;4890263;28;122285;-79
2022/07/24 07:55:54;;;;;;;;;;;;;;;22.35;55.57;101450.22;4891715;28;123651;-79
2022/07/24 07:58:20;;;;;;;;;;;;;;;22.48;55.25;101441.28;4888173;28;120337;-79
2022/07/24 08:00:45;;;;;;;;;;;;;;;22.61;54.64;101443.50;4912006;28;120668;-79
2022/07/24 08:03:11;;;;;;;;;;;;;;;22.75;55.35;101448.00;4890283;28;120189;-79
2022/07/24 08:05:36;;;;;;;;;;;;;;;22.93;54.93;101441.03;4905164;28;122196;-79
2022/07/24 08:08:02;;;;;;;;;;;;;;;23.09;54.25;101442.97;4913528;28;120780;-79
2022/07/24 08:10:28;;;;;;;;;;;;;;;23.27;53.90;101441.56;4916931;28;121881;-79
2022/07/24 08:12:53;;;;;;;;;;;;;;;23.48;53.68;101450.31;4883376;28;120078;-79
2022/07/24 08:15:19;;;;;;;;;;;;;;;23.70;53.53;101441.72;4917493;28;120752;-78
2022/07/24 08:17:44;;;;;;;;;;;;;;;23.92;53.24;101437.19;4917198;28;122899;-79
2022/07/24 08:20:10;;;;;;;;;;;;;;;24.09;52.69;101434.94;4902558;28;123169;-79
2022/07/24 08:22:44;;;;;;;;;;;;;;;24.24;52.29;101429.66;4924028;28;121940;-79
2022/07/24 08:25:10;;;;;;;;;;;;;;;24.40;52.64;101425.16;4889112;28;123994;-79
2022/07/24 08:27:36;;;;;;;;;;;;;;;24.60;52.49;101426.66;4891898;28;122102;-79
2022/07/24 08:30:02;;;;;;;;;;;;;;;24.80;52.17;101423.31;4921162;28;122563;-80
2022/07/24 08:32:28;;;;;;;;;;;;;;;24.99;51.82;101421.28;4921477;28;122216;-79
2022/07/24 08:34:53;;;;;;;;;;;;;;;25.16;50.65;101434.28;4905351;28;122578;-79
2022/07/24 08:37:20;;;;;;;;;;;;;;;25.32;50.74;101422.03;4905095;28;121858;-80
2022/07/24 08:39:46;;;;;;;;;;;;;;;25.51;50.29;101419.88;4921306;28;122034;-80
2022/07/24 08:42:11;;;;;;;;;;;;;;;25.60;49.16;101418.72;4907798;28;125289;-80
2022/07/24 08:44:38;;;;;;;;;;;;;;;25.77;49.97;101410.00;4926312;28;121983;-80
2022/07/24 08:47:03;;;;;;;;;;;;;;;25.95;49.72;101415.53;4904281;28;125033;-79
2022/07/24 08:49:32;;;;;;;;;;;;;;;26.13;49.77;101413.88;4888338;28;122233;-80
2022/07/24 08:51:59;;;;;;;;;;;;;;;26.30;48.98;101417.13;4904483;28;124107;-80
2022/07/24 08:54:55;;;;;;;;;;;;;;;26.48;48.82;101420.34;4909739;28;123332;-80
2022/07/24 08:57:20;;;;;;;;;;;;;;;26.55;48.30;101414.06;4894506;28;121971;-80
2022/07/24 08:59:46;;;;;;;;;;;;;;;26.53;47.22;101399.78;4919560;28;122778;-80
2022/07/24 09:02:11;;;;;;;;;;;;;;;26.60;47.94;101404.72;4888082;28;122485;-79
2022/07/24 09:04:41;;;;;;;;;;;;;;;26.74;47.86;101397.75;4918808;28;122143;-79
2022/07/24 09:07:08;;;;;;;;;;;;;;;26.90;47.76;101398.66;4920695;28;125160;-80
2022/07/24 09:09:34;;;;;;;;;;;;;;;27.07;47.28;101392.66;4881971;28;123493;-79
2022/07/24 09:12:03;;;;;;;;;;;;;;;27.17;47.12;101393.66;4920615;28;122708;-80
2022/07/24 09:14:33;;;;;;;;;;;;;;;27.29;47.17;101397.72;4901108;28;122464;-79
2022/07/24 09:17:11;;;;;;;4.38;3.40;;;;;;;27.39;46.35;101393.09;4884844;28;122476;-80
2022/07/24 09:19:57;;;;;;;6.28;3.88;;;;;;;27.47;46.16;101385.47;4884920;28;124956;-81
2022/07/24 09:22:38;;;;;;;4.55;3.38;;;;;;;27.56;46.55;101380.63;4887379;28;122429;-80
2022/07/24 09:25:13;;;;;;;5.05;3.78;;;;;;;27.62;45.88;101386.84;4887130;28;122232;-80
2022/07/24 09:28:00;;;;;;;4.78;3.58;;;;;;;27.69;45.40;101380.56;4886179;28;125266;-80
2022/07/24 09:30:25;;;;;;;5.60;3.35;;;;;;;27.74;46.41;101386.03;4918714;28;122812;-79
2022/07/24 09:33:01;;;;;;;6.88;3.90;;;;;;;27.81;46.34;101388.13;4888299;28;122151;-80
2022/07/24 09:35:37;;;;;;;6.28;3.22;;;;;;;27.88;45.97;101375.38;4906729;28;122872;-79
2022/07/24 09:38:05;;;;;;;5.50;3.17;;;;;;;27.96;45.72;101376.19;4906531;28;122738;-80
2022/07/24 09:40:33;;;;;;;5.25;3.35;;;;;;;27.97;45.68;101366.41;4907443;28;122326;-80
2022/07/24 09:43:24;;;;;;;4.57;3.58;;;;;;;28.06;45.85;101374.34;4912506;28;122927;-80
2022/07/24 09:46:00;;;;;;;5.07;3.70;;;;;;;28.10;45.32;101383.19;4890171;28;122335;-80
2022/07/24 09:48:27;;;;;;;3.92;3.20;;;;;;;28.08;46.18;101366.09;4893347;28;122304;-80
2022/07/24 09:50:55;;;;;;;4.43;3.45;;;;;;;28.16;45.16;101371.78;4889834;28;124404;-80
2022/07/24 09:53:24;;;;;;;3.92;3.50;;;;;;;28.03;45.85;101352.91;4911029;28;122302;-80
2022/07/24 09:56:16;;;;;;;4.30;3.55;;;;;;;28.17;45.90;101369.69;4886063;28;123770;-79
2022/07/24 09:58:44;;;;;;;6.38;4.00;;;;;;;28.24;44.73;101360.50;4892220;28;122114;-80
2022/07/24 10:01:10;;;;;;;4.78;4.20;;;;;;;28.16;43.97;101363.31;4906659;28;125740;-80
2022/07/24 10:03:38;;;;;;;5.45;4.00;;;;;;;28.03;44.44;101346.50;4891010;28;125432;-80
2022/07/24 10:06:13;;;;;;;4.25;3.38;;;;;;;27.96;46.20;101350.81;4904994;28;122480;-79
2022/07/24 10:08:41;;;;;;;4.80;3.40;;;;;;;28.03;45.62;101364.19;4890381;28;124790;-80
2022/07/24 10:11:07;;;;;;;4.10;3.47;;;;;;;28.03;45.47;101350.09;4920721;28;123009;-79
2022/07/24 10:13:34;;;;;;;5.72;4.35;;;;;;;28.04;44.57;101348.78;4895769;28;122403;-80
2022/07/24 10:16:14;;;;;;;5.20;3.75;;;;;;;28.03;44.85;101346.50;4888253;28;124633;-80
2022/07/24 10:19:03;;;;;;;4.00;3.47;;;;;;;28.05;45.28;101339.00;4890695;28;122468;-80
2022/07/24 10:21:35;;;;;;;6.20;4.28;;;;;;;28.20;44.47;101338.31;4904402;28;122296;-79
2022/07/24 10:24:07;;;;;;;4.13;3.60;;;;;;;28.29;45.35;101348.31;4885846;28;124854;-80
2022/07/24 10:26:40;;;;;;;6.53;3.97;;;;;;;28.35;44.46;101346.81;4891291;28;122464;-80
2022/07/24 10:29:35;;;;;;;3.92;3.20;;;;;;;28.34;45.31;101327.66;4848947;28;122233;-80
2022/07/24 10:32:01;;;;;;;5.03;3.53;;;;;;;28.48;44.96;101317.72;4886018;28;125785;-80
2022/07/24 10:34:38;;;;;;;5.68;3.95;;;;;;;28.53;44.81;101325.25;4903941;28;124075;-80
2022/07/24 10:37:13;;;;;;;5.32;3.70;;;;;;;28.52;45.30;101317.34;4889891;28;124965;-79
2022/07/24 10:40:02;;;;;;;4.10;3.40;;;;;;;28.64;45.59;101316.44;4905077;28;122167;-79
2022/07/24 10:42:28;;;;;;;4.65;3.88;;;;;;;28.68;44.96;101313.22;4921478;28;122512;-80
2022/07/24 10:45:30;;;;;;;7.13;4.43;;;;;;;28.71;43.94;101312.84;4888359;28;125957;-78
2022/07/24 10:48:22;;;;;;;5.53;4.45;;;;;;;28.63;44.15;101312.09;4811188;29;123383;-79
2022/07/24 10:50:56;;;;;;;5.20;4.00;;;;;;;28.58;43.97;101304.53;4881374;28;123102;-80
2022/07/24 10:53:23;;;;;;;5.68;4.20;;;;;;;28.51;43.89;101310.94;4885433;28;126085;-80
2022/07/24 10:55:49;;;;;;;5.82;4.20;;;;;;;28.44;44.47;101306.03;4905001;28;122218;-80
2022/07/24 10:58:16;;;;;;;4.40;4.00;;;;;;;28.36;44.37;101306.00;4905818;28;123212;-80
2022/07/24 11:00:50;;;;;;;5.45;4.18;;;;;;;28.37;44.10;101296.22;4889652;28;125131;-79
2022/07/24 11:03:22;;;;;;;;;;;;;;;28.39;44.50;101304.91;4883168;28;124565;-80
2022/07/24 11:06:07;;;;;;;6.78;4.85;;;;;;;28.46;43.85;101302.66;4916359;28;122885;-80
2022/07/24 11:08:47;;;;;;;5.50;4.35;;;;;;;28.47;43.59;101292.88;4898269;28;123302;-79
2022/07/24 11:11:19;;;;;;;6.50;4.20;;;;;;;28.53;44.23;101285.72;4885941;28;124365;-79
2022/07/24 11:13:50;;;;;;;5.55;4.22;;;;;;;28.55;43.73;101285.91;4902617;28;125084;-80
2022/07/24 11:16:15;;;;;;;5.03;4.40;;;;;;;28.58;43.54;101298.16;4899624;28;123428;-80
2022/07/24 11:19:03;;;;;;;6.20;4.38;;;;;;;28.56;43.45;101275.38;4902549;28;125353;-80
2022/07/24 11:21:40;;;;;;;5.57;4.57;;;;;;;28.67;43.35;101284.25;4878267;28;123097;-80
2022/07/24 11:26:48;;;;;;;7.50;5.07;;;;;;;28.79;43.14;101272.56;4885018;28;123128;-79
2022/07/24 11:29:14;;;;;;;6.20;5.10;;;;;;;28.71;42.64;101273.31;4912285;28;122789;-79